createdAt,value
2019-03-25T00:04:11.957Z,6.74
2019-03-25T00:10:18.687Z,6.69
2019-03-25T00:16:25.639Z,6.65
2019-03-25T00:22:32.335Z,6.69
2019-03-25T00:28:38.921Z,6.75
2019-03-25T00:34:45.492Z,6.79
2019-03-25T00:40:53.154Z,6.84
2019-03-25T00:46:59.831Z,6.90
2019-03-25T00:53:06.650Z,6.92
2019-03-25T00:59:13.346Z,6.93
2019-03-25T01:05:20.417Z,6.94
2019-03-25T01:11:27.594Z,6.92
2019-03-25T01:17:34.324Z,6.74
2019-03-25T01:23:41.063Z,6.69
2019-03-25T01:29:47.744Z,6.79
2019-03-25T01:35:54.415Z,6.91
2019-03-25T01:42:01.404Z,6.93
2019-03-25T01:48:07.986Z,7.00
2019-03-25T01:54:14.852Z,7.03
2019-03-25T02:00:21.601Z,7.08
2019-03-25T02:06:28.170Z,7.11
2019-03-25T02:12:35.118Z,7.15
2019-03-25T02:18:41.678Z,7.16
2019-03-25T02:24:48.223Z,7.23
2019-03-25T02:30:55.283Z,7.29
2019-03-25T02:37:01.943Z,7.28
2019-03-25T02:43:10.391Z,7.34
2019-03-25T02:49:17.130Z,7.36
2019-03-25T02:55:23.692Z,7.38
2019-03-25T03:01:30.421Z,7.42
2019-03-25T03:07:37.178Z,7.48
2019-03-25T03:13:43.786Z,7.51
2019-03-25T03:19:50.493Z,7.51
2019-03-25T03:25:58.291Z,7.46
2019-03-25T03:32:05.137Z,7.50
2019-03-25T03:38:11.698Z,7.53
2019-03-25T03:44:18.289Z,7.59
2019-03-25T03:50:29.323Z,7.57
2019-03-25T03:56:35.798Z,7.50
2019-03-25T04:02:42.433Z,7.44
2019-03-25T04:08:49.057Z,7.40
2019-03-25T04:14:55.602Z,7.38
2019-03-25T04:21:02.195Z,7.40
2019-03-25T04:27:08.765Z,7.39
2019-03-25T04:33:15.337Z,7.40
2019-03-25T04:39:21.876Z,7.38
2019-03-25T04:45:28.433Z,7.43
2019-03-25T04:51:35.083Z,7.43
2019-03-25T04:57:41.756Z,7.40
2019-03-25T05:03:48.605Z,7.43
2019-03-25T05:09:55.217Z,7.40
2019-03-25T05:16:01.870Z,7.41
2019-03-25T05:22:10.934Z,7.45
2019-03-25T05:28:17.016Z,7.38
2019-03-25T05:34:23.855Z,7.29
2019-03-25T05:40:30.406Z,7.23
2019-03-25T05:46:37.159Z,7.24
2019-03-25T05:52:43.913Z,7.26
2019-03-25T05:58:50.476Z,7.17
2019-03-25T06:04:57.171Z,7.05
2019-03-25T06:11:03.764Z,6.97
2019-03-25T06:17:10.671Z,7.08
2019-03-25T06:23:17.265Z,7.24
2019-03-25T06:29:23.904Z,7.22
2019-03-25T06:35:30.589Z,7.34
2019-03-25T06:41:37.186Z,7.31
2019-03-25T06:47:43.783Z,7.13
2019-03-25T06:53:50.395Z,7.15
2019-03-25T06:59:57.220Z,7.18
2019-03-25T07:06:03.828Z,7.24
2019-03-25T07:12:10.549Z,7.23
2019-03-25T07:18:17.323Z,7.44
2019-03-25T07:24:24.842Z,7.53
2019-03-25T07:30:31.598Z,7.70
2019-03-25T07:36:38.337Z,7.62
2019-03-25T07:42:45.237Z,7.70
2019-03-25T07:48:51.880Z,7.77
2019-03-25T07:54:58.484Z,7.89
2019-03-25T08:01:05.375Z,7.95
2019-03-25T08:07:12.051Z,8.10
2019-03-25T08:13:18.704Z,8.12
2019-03-25T08:19:25.542Z,8.11
2019-03-25T08:25:32.155Z,8.18
2019-03-25T08:31:38.993Z,8.18
2019-03-25T08:37:45.745Z,8.23
2019-03-25T08:43:52.366Z,8.17
2019-03-25T08:49:59.004Z,8.38
2019-03-25T08:56:05.857Z,8.49
2019-03-25T09:02:12.467Z,8.69
2019-03-25T09:08:19.086Z,8.74
2019-03-25T09:14:25.907Z,8.46
2019-03-25T09:20:32.584Z,8.04
2019-03-25T09:26:39.390Z,7.34
2019-03-25T09:32:46.009Z,6.79
2019-03-25T09:38:52.966Z,6.38
2019-03-25T09:44:59.546Z,6.71
2019-03-25T09:51:06.717Z,7.22
2019-03-25T09:57:13.376Z,7.18
2019-03-25T10:03:20.034Z,7.47
2019-03-25T10:09:26.652Z,7.72
2019-03-25T10:15:33.820Z,7.71
2019-03-25T10:21:40.561Z,7.68
2019-03-25T10:27:47.505Z,7.89
2019-03-25T10:33:54.103Z,7.83
2019-03-25T10:40:00.821Z,8.01
2019-03-25T10:46:07.620Z,8.43
2019-03-25T10:52:14.278Z,8.62
2019-03-25T10:58:20.978Z,8.56
2019-03-25T11:04:27.923Z,8.39
2019-03-25T11:10:34.727Z,7.34
2019-03-25T11:16:41.416Z,7.32
2019-03-25T11:22:48.065Z,7.57
2019-03-25T11:28:54.964Z,7.96
2019-03-25T11:35:01.636Z,8.39
2019-03-25T11:41:08.668Z,8.70
2019-03-25T11:47:15.786Z,8.89
2019-03-25T11:53:22.431Z,9.00
2019-03-25T11:59:29.227Z,9.39
2019-03-25T12:05:35.955Z,9.51
2019-03-25T12:11:42.732Z,9.66
2019-03-25T12:17:49.402Z,9.73
2019-03-25T12:23:55.989Z,9.25
2019-03-25T12:30:02.621Z,8.10
2019-03-25T12:36:09.706Z,8.22
2019-03-25T12:42:16.565Z,8.61
2019-03-25T12:48:25.263Z,9.01
2019-03-25T12:54:32.050Z,9.45
2019-03-25T13:00:43.489Z,9.54
2019-03-25T13:06:50.585Z,9.39
2019-03-25T13:12:58.605Z,9.50
2019-03-25T13:19:05.373Z,9.38
2019-03-25T13:25:12.167Z,9.73
2019-03-25T13:31:18.852Z,9.90
2019-03-25T13:37:25.503Z,9.74
2019-03-25T13:43:32.197Z,8.81
2019-03-25T13:49:38.983Z,8.58
2019-03-25T13:55:45.685Z,8.83
2019-03-25T14:01:52.461Z,8.93
2019-03-25T14:07:59.127Z,8.75
2019-03-25T14:14:05.719Z,8.67
2019-03-25T14:20:12.608Z,8.67
2019-03-25T14:26:19.210Z,8.29
2019-03-25T14:32:25.964Z,8.73
2019-03-25T14:38:32.724Z,9.10
2019-03-25T14:44:39.456Z,9.25
2019-03-25T14:50:46.130Z,9.12
2019-03-25T14:56:52.887Z,9.13
2019-03-25T15:02:59.601Z,9.23
2019-03-25T15:09:08.769Z,9.54
2019-03-25T15:15:15.788Z,9.81
2019-03-25T15:21:22.678Z,9.50
2019-03-25T15:27:29.355Z,8.85
2019-03-25T15:33:35.967Z,8.44
2019-03-25T15:39:46.878Z,9.03
2019-03-25T15:45:52.160Z,8.97
2019-03-25T15:51:59.053Z,8.82
2019-03-25T15:58:05.656Z,8.84
2019-03-25T16:04:12.273Z,9.52
2019-03-25T16:10:19.617Z,9.95
2019-03-25T16:16:26.754Z,9.85
2019-03-25T16:22:33.441Z,9.85
2019-03-25T16:28:40.111Z,9.82
2019-03-25T16:34:46.696Z,9.74
2019-03-25T16:40:53.295Z,9.74
2019-03-25T16:47:00.137Z,9.73
2019-03-25T16:53:06.757Z,9.79
2019-03-25T16:59:13.679Z,9.82
2019-03-25T17:05:20.420Z,9.72
2019-03-25T17:11:27.116Z,9.55
2019-03-25T17:17:34.224Z,9.46
2019-03-25T17:23:40.905Z,9.46
2019-03-25T17:29:47.501Z,9.45
2019-03-25T17:35:54.177Z,9.33
2019-03-25T17:42:01.200Z,9.25
2019-03-25T17:48:08.062Z,9.18
2019-03-25T17:54:15.754Z,9.15
2019-03-25T18:01:00.090Z,9.20
2019-03-25T18:07:07.623Z,9.16
2019-03-25T18:13:22.410Z,9.04
2019-03-25T18:19:22.683Z,9.02
2019-03-25T18:25:29.616Z,8.98
2019-03-25T18:31:43.172Z,8.90
2019-03-25T18:37:44.757Z,8.89
2019-03-25T18:43:51.679Z,8.89
2019-03-25T18:49:58.525Z,8.83
2019-03-25T18:56:05.227Z,8.86
2019-03-25T19:02:11.881Z,8.91
2019-03-25T19:08:18.501Z,8.91
2019-03-25T19:14:25.263Z,8.85
2019-03-25T19:20:32.005Z,8.84
2019-03-25T19:26:38.774Z,8.80
2019-03-25T19:32:51.052Z,8.76
2019-03-25T19:38:58.020Z,8.74
2019-03-25T19:45:05.257Z,8.75
2019-03-25T19:51:12.286Z,8.75
2019-03-25T19:57:19.389Z,8.67
2019-03-25T20:03:26.152Z,8.67
2019-03-25T20:09:33.990Z,8.59
2019-03-25T20:15:46.606Z,8.45
2019-03-25T20:21:49.229Z,8.43
2019-03-25T20:27:58.810Z,8.38
2019-03-25T20:34:11.158Z,8.28
2019-03-25T20:40:15.337Z,8.18
2019-03-25T20:46:22.082Z,8.15
2019-03-25T20:52:29.136Z,8.14
2019-03-25T20:58:36.387Z,8.17
2019-03-25T21:04:43.026Z,8.25
2019-03-25T21:10:49.760Z,8.22
2019-03-25T21:16:56.442Z,8.17
2019-03-25T21:23:03.247Z,8.14
2019-03-25T21:29:10.328Z,8.15
2019-03-25T21:35:17.401Z,8.09
2019-03-25T21:41:24.065Z,8.01
2019-03-25T21:47:30.774Z,7.93
2019-03-25T21:53:37.439Z,7.95
2019-03-25T21:59:44.068Z,7.89
2019-03-25T22:05:50.888Z,7.85
2019-03-25T22:11:57.567Z,7.79
2019-03-25T22:18:04.221Z,7.71
2019-03-25T22:24:11.410Z,7.65
2019-03-25T22:30:18.186Z,7.66
2019-03-25T22:36:24.791Z,7.68
2019-03-25T22:42:31.386Z,7.66
2019-03-25T22:48:38.045Z,7.64
2019-03-25T22:54:44.691Z,7.61
2019-03-25T23:00:51.413Z,7.62
2019-03-25T23:06:58.023Z,7.71
2019-03-25T23:13:04.574Z,7.71
2019-03-25T23:19:11.284Z,7.68
2019-03-25T23:25:18.185Z,7.69
2019-03-25T23:31:25.092Z,7.66
2019-03-25T23:37:31.706Z,7.64
2019-03-25T23:43:38.313Z,7.63
2019-03-25T23:49:45.010Z,7.60
2019-03-25T23:55:51.611Z,7.66
